createdAt,value
2023-05-05T00:01:03.524Z,11.90
2023-05-05T00:03:34.329Z,11.98
2023-05-05T00:06:02.287Z,11.98
2023-05-05T00:08:30.403Z,11.99
2023-05-05T00:10:58.299Z,11.94
2023-05-05T00:13:26.186Z,12.00
2023-05-05T00:15:54.547Z,11.93
2023-05-05T00:18:22.451Z,11.85
2023-05-05T00:20:52.157Z,11.90
2023-05-05T00:23:20.413Z,11.96
2023-05-05T00:25:48.561Z,11.95
2023-05-05T00:28:16.420Z,11.87
2023-05-05T00:30:44.563Z,11.90
2023-05-05T00:33:13.596Z,11.90
2023-05-05T00:35:41.721Z,11.77
2023-05-05T00:38:11.331Z,11.82
2023-05-05T00:40:39.202Z,11.80
2023-05-05T00:43:07.555Z,11.77
2023-05-05T00:45:37.263Z,11.67
2023-05-05T00:48:05.699Z,11.72
2023-05-05T00:50:33.764Z,11.70
2023-05-05T00:53:02.865Z,11.64
2023-05-05T00:55:33.799Z,11.69
2023-05-05T00:58:02.669Z,11.67
2023-05-05T01:00:30.990Z,11.70
2023-05-05T01:02:58.955Z,11.66
2023-05-05T01:05:28.239Z,11.63
2023-05-05T01:08:07.064Z,11.63
2023-05-05T01:10:39.809Z,11.55
2023-05-05T01:13:26.952Z,11.44
2023-05-05T01:15:59.437Z,11.47
2023-05-05T01:18:33.531Z,11.45
2023-05-05T01:21:08.115Z,11.48
2023-05-05T01:23:49.646Z,11.43
2023-05-05T01:26:39.084Z,11.46
2023-05-05T01:29:31.278Z,11.39
2023-05-05T01:32:02.647Z,11.37
2023-05-05T01:34:35.311Z,11.40
2023-05-05T01:37:08.245Z,11.34
2023-05-05T01:39:37.093Z,11.31
2023-05-05T01:42:07.805Z,11.22
2023-05-05T01:44:37.865Z,11.25
2023-05-05T01:47:07.490Z,11.28
2023-05-05T01:49:36.167Z,11.24
2023-05-05T01:52:05.194Z,11.19
2023-05-05T01:54:34.780Z,11.17
2023-05-05T01:57:04.698Z,11.14
2023-05-05T01:59:33.409Z,11.10
2023-05-05T02:02:02.911Z,11.07
2023-05-05T02:04:33.131Z,11.05
2023-05-05T02:07:02.549Z,11.06
2023-05-05T02:09:33.641Z,11.00
2023-05-05T02:12:03.040Z,11.00
2023-05-05T02:14:31.645Z,11.00
2023-05-05T02:16:59.600Z,10.91
2023-05-05T02:19:30.933Z,10.89
2023-05-05T02:22:00.279Z,10.92
2023-05-05T02:24:28.618Z,10.94
2023-05-05T02:26:57.339Z,10.94
2023-05-05T02:29:29.901Z,10.94
2023-05-05T02:32:03.280Z,10.91
2023-05-05T02:34:36.398Z,10.89
2023-05-05T02:37:08.881Z,10.83
2023-05-05T02:39:43.520Z,10.89
2023-05-05T02:42:17.522Z,10.90
2023-05-05T02:44:46.625Z,10.88
2023-05-05T02:47:15.667Z,10.81
2023-05-05T02:49:44.074Z,10.88
2023-05-05T02:52:13.299Z,10.83
2023-05-05T02:54:42.830Z,10.84
2023-05-05T02:57:19.709Z,10.89
2023-05-05T02:59:58.381Z,10.88
2023-05-05T03:02:29.447Z,10.91
2023-05-05T03:05:02.066Z,10.95
2023-05-05T03:07:39.394Z,10.81
2023-05-05T03:10:09.741Z,10.77
2023-05-05T03:12:50.897Z,10.83
2023-05-05T03:15:27.242Z,10.74
2023-05-05T03:17:55.510Z,10.73
2023-05-05T03:20:24.117Z,10.74
2023-05-05T03:22:54.781Z,10.74
2023-05-05T03:25:23.216Z,10.75
2023-05-05T03:27:51.058Z,10.74
2023-05-05T03:30:21.415Z,10.74
2023-05-05T03:32:52.624Z,10.74
2023-05-05T03:35:21.218Z,10.66
2023-05-05T03:37:49.218Z,10.76
2023-05-05T03:40:22.048Z,10.71
2023-05-05T03:42:53.349Z,10.64
2023-05-05T03:45:21.516Z,10.60
2023-05-05T03:47:49.416Z,10.60
2023-05-05T03:50:17.568Z,10.60
2023-05-05T03:52:45.616Z,10.65
2023-05-05T03:55:13.557Z,10.58
2023-05-05T03:57:42.798Z,10.53
2023-05-05T04:00:11.865Z,10.55
2023-05-05T04:02:43.352Z,10.49
2023-05-05T04:05:13.720Z,10.44
2023-05-05T04:07:41.621Z,10.43
2023-05-05T04:10:10.439Z,10.46
2023-05-05T04:12:39.215Z,10.43
2023-05-05T04:15:10.235Z,10.40
2023-05-05T04:17:38.640Z,10.54
2023-05-05T04:20:08.277Z,10.55
2023-05-05T04:22:36.722Z,10.51
2023-05-05T04:25:06.622Z,10.52
2023-05-05T04:27:35.168Z,10.49
2023-05-05T04:30:03.131Z,10.53
2023-05-05T04:32:34.380Z,10.45
2023-05-05T04:35:02.227Z,10.61
2023-05-05T04:37:31.290Z,10.60
2023-05-05T04:40:00.229Z,10.63
2023-05-05T04:42:28.752Z,10.61
2023-05-05T04:44:56.697Z,10.55
2023-05-05T04:47:24.915Z,10.67
2023-05-05T04:49:55.336Z,10.61
2023-05-05T04:52:23.813Z,10.76
2023-05-05T04:54:52.616Z,10.78
2023-05-05T04:57:20.531Z,10.80
2023-05-05T04:59:48.503Z,10.80
2023-05-05T05:02:16.416Z,10.78
2023-05-05T05:04:44.294Z,10.84
2023-05-05T05:07:14.963Z,10.84
2023-05-05T05:09:42.875Z,10.81
2023-05-05T05:12:10.747Z,10.89
2023-05-05T05:14:38.777Z,10.92
2023-05-05T05:17:06.718Z,10.96
2023-05-05T05:19:35.285Z,11.02
2023-05-05T05:22:03.774Z,11.08
2023-05-05T05:24:36.292Z,11.19
2023-05-05T05:27:09.776Z,11.16
2023-05-05T05:29:39.295Z,11.36
2023-05-05T05:32:07.173Z,11.41
2023-05-05T05:34:35.702Z,11.51
2023-05-05T05:37:04.729Z,11.58
2023-05-05T05:39:32.637Z,11.64
2023-05-05T05:42:03.595Z,11.63
2023-05-05T05:44:32.726Z,11.71
2023-05-05T05:47:00.751Z,11.71
2023-05-05T05:49:28.855Z,11.98
2023-05-05T05:51:56.898Z,12.06
2023-05-05T05:54:25.362Z,11.97
2023-05-05T05:56:53.407Z,12.11
2023-05-05T05:59:23.589Z,12.21
2023-05-05T06:01:51.564Z,12.22
2023-05-05T06:04:19.597Z,12.29
2023-05-05T06:06:47.621Z,12.47
2023-05-05T06:09:15.545Z,12.76
2023-05-05T06:11:43.466Z,12.71
2023-05-05T06:14:11.436Z,12.83
2023-05-05T06:16:40.759Z,12.99
2023-05-05T06:19:12.540Z,12.84
2023-05-05T06:21:40.784Z,12.91
2023-05-05T06:24:08.702Z,12.93
2023-05-05T06:26:36.899Z,13.08
2023-05-05T06:29:05.000Z,12.92
2023-05-05T06:31:32.959Z,12.72
2023-05-05T06:34:02.224Z,12.95
2023-05-05T06:36:30.086Z,13.18
2023-05-05T06:38:58.095Z,13.48
2023-05-05T06:41:26.018Z,13.45
2023-05-05T06:43:53.784Z,13.69
2023-05-05T06:46:21.672Z,13.39
2023-05-05T06:48:49.557Z,13.42
2023-05-05T06:51:18.846Z,13.26
2023-05-05T06:53:46.689Z,13.78
2023-05-05T06:56:14.470Z,14.27
2023-05-05T06:58:42.529Z,14.11
2023-05-05T07:01:10.564Z,14.52
2023-05-05T07:03:38.451Z,15.05
2023-05-05T07:06:06.552Z,15.08
2023-05-05T07:08:35.759Z,15.41
2023-05-05T07:11:03.682Z,15.85
2023-05-05T07:13:31.687Z,15.53
2023-05-05T07:15:59.608Z,15.81
2023-05-05T07:18:27.628Z,15.88
2023-05-05T07:20:55.440Z,15.67
2023-05-05T07:23:23.274Z,15.30
2023-05-05T07:25:52.645Z,14.87
2023-05-05T07:28:22.277Z,15.24
2023-05-05T07:30:50.902Z,15.22
2023-05-05T07:33:19.457Z,15.25
2023-05-05T07:35:47.563Z,15.65
2023-05-05T07:38:15.365Z,15.50
2023-05-05T07:40:43.242Z,15.70
2023-05-05T07:43:12.503Z,16.37
2023-05-05T07:45:40.449Z,17.91
2023-05-05T07:48:08.479Z,17.88
2023-05-05T07:50:36.406Z,18.25
2023-05-05T07:53:13.657Z,19.93
2023-05-05T07:55:42.774Z,20.33
2023-05-05T07:58:12.089Z,19.63
2023-05-05T08:00:40.191Z,19.79
2023-05-05T08:03:11.370Z,20.64
2023-05-05T08:05:40.812Z,21.31
2023-05-05T08:08:08.757Z,21.65
2023-05-05T08:10:37.275Z,22.28
2023-05-05T08:13:05.231Z,21.86
2023-05-05T08:15:34.589Z,21.45
2023-05-05T08:18:02.586Z,22.10
2023-05-05T08:20:30.607Z,21.67
2023-05-05T08:22:58.538Z,21.11
2023-05-05T08:25:27.361Z,20.96
2023-05-05T08:27:55.623Z,21.65
2023-05-05T08:30:29.096Z,21.00
2023-05-05T08:32:58.972Z,22.07
2023-05-05T08:35:27.128Z,22.29
2023-05-05T08:37:56.695Z,22.11
2023-05-05T08:40:31.116Z,21.79
2023-05-05T08:42:59.008Z,23.07
2023-05-05T08:45:27.428Z,22.77
2023-05-05T08:47:56.304Z,22.29
2023-05-05T08:50:27.478Z,21.80
2023-05-05T08:52:59.706Z,22.11
2023-05-05T08:55:28.356Z,22.14
2023-05-05T08:57:58.012Z,23.20
2023-05-05T09:00:26.977Z,23.10
2023-05-05T09:02:56.125Z,22.36
2023-05-05T09:05:24.310Z,22.05
2023-05-05T09:07:53.796Z,23.06
2023-05-05T09:10:21.692Z,23.03
2023-05-05T09:12:51.437Z,22.17
2023-05-05T09:15:19.445Z,22.07
2023-05-05T09:17:48.078Z,21.91
2023-05-05T09:20:16.129Z,22.52
2023-05-05T09:22:45.711Z,22.33
2023-05-05T09:25:16.328Z,22.33
2023-05-05T09:27:46.308Z,22.71
2023-05-05T09:30:17.177Z,22.49
2023-05-05T09:32:46.461Z,22.46
2023-05-05T09:35:14.548Z,22.81
2023-05-05T09:37:42.674Z,22.73
2023-05-05T09:40:11.695Z,22.87
2023-05-05T09:42:41.429Z,23.77
2023-05-05T09:45:26.397Z,23.53
2023-05-05T09:47:59.141Z,23.32
2023-05-05T09:50:30.685Z,23.99
2023-05-05T09:53:02.916Z,23.64
2023-05-05T09:55:31.964Z,23.76
2023-05-05T09:58:18.277Z,23.03
2023-05-05T10:00:46.479Z,22.70
2023-05-05T10:03:14.480Z,23.23
2023-05-05T10:05:50.545Z,22.56
2023-05-05T10:08:19.839Z,22.88
2023-05-05T10:10:50.655Z,22.21
2023-05-05T10:13:20.637Z,21.63
2023-05-05T10:15:50.876Z,21.02
2023-05-05T10:18:21.497Z,21.43
2023-05-05T10:20:51.203Z,21.13
2023-05-05T10:23:20.934Z,20.87
2023-05-05T10:25:53.092Z,21.29
2023-05-05T10:28:28.301Z,21.24
2023-05-05T10:30:58.122Z,22.20
2023-05-05T10:33:32.578Z,22.67
2023-05-05T10:36:03.059Z,23.10
2023-05-05T10:38:31.619Z,24.12
2023-05-05T10:41:00.708Z,24.20
2023-05-05T10:43:30.802Z,23.82
2023-05-05T10:45:59.505Z,23.03
2023-05-05T10:48:35.881Z,23.05
2023-05-05T10:51:18.820Z,23.15
2023-05-05T10:53:58.055Z,23.11
2023-05-05T10:56:29.196Z,22.23
2023-05-05T10:59:00.610Z,22.07
2023-05-05T11:01:31.416Z,22.73
2023-05-05T11:04:21.568Z,23.17
2023-05-05T11:07:24.376Z,23.21
2023-05-05T11:09:56.856Z,22.44
2023-05-05T11:12:24.772Z,22.14
2023-05-05T11:15:29.813Z,21.80
2023-05-05T11:17:59.812Z,21.92
2023-05-05T11:21:01.175Z,22.29
2023-05-05T11:23:29.691Z,22.04
2023-05-05T11:25:58.096Z,22.18
2023-05-05T11:28:29.767Z,21.31
2023-05-05T11:31:17.149Z,21.65
2023-05-05T11:33:46.605Z,20.74
2023-05-05T11:36:15.822Z,21.53
2023-05-05T11:39:06.200Z,21.60
2023-05-05T11:42:10.412Z,21.88
2023-05-05T11:44:38.931Z,22.26
2023-05-05T11:47:25.866Z,21.90
2023-05-05T11:49:56.052Z,21.76
2023-05-05T11:52:26.998Z,21.39
2023-05-05T11:54:55.067Z,21.64
2023-05-05T11:57:29.033Z,21.49
2023-05-05T11:59:58.374Z,21.50
2023-05-05T12:02:27.717Z,21.56
2023-05-05T12:04:58.254Z,21.50
2023-05-05T12:07:28.117Z,22.16
2023-05-05T12:09:56.317Z,21.46
2023-05-05T12:12:35.823Z,21.72
2023-05-05T12:15:05.206Z,21.87
2023-05-05T12:17:42.496Z,22.13
2023-05-05T12:20:13.490Z,22.18
2023-05-05T12:22:41.663Z,22.22
2023-05-05T12:25:10.132Z,22.27
2023-05-05T12:27:38.587Z,22.46
2023-05-05T12:30:15.147Z,22.63
2023-05-05T12:32:44.556Z,22.79
2023-05-05T12:35:14.654Z,22.28
2023-05-05T12:37:43.582Z,22.62
2023-05-05T12:40:48.373Z,22.46
2023-05-05T12:43:30.154Z,22.52
2023-05-05T12:46:08.858Z,22.80
2023-05-05T12:48:38.952Z,22.91
2023-05-05T12:51:16.671Z,23.71
2023-05-05T12:53:44.992Z,23.19
2023-05-05T12:56:32.333Z,23.19
2023-05-05T12:59:00.269Z,22.52
2023-05-05T13:01:28.463Z,22.72
2023-05-05T13:04:07.242Z,22.97
2023-05-05T13:06:37.636Z,23.86
2023-05-05T13:09:05.928Z,23.10
2023-05-05T13:11:38.273Z,23.84
2023-05-05T13:14:07.705Z,23.37
2023-05-05T13:16:35.886Z,23.50
2023-05-05T13:19:03.708Z,23.49
2023-05-05T13:21:31.547Z,23.55
2023-05-05T13:24:16.219Z,23.34
2023-05-05T13:26:46.915Z,23.50
2023-05-05T13:29:16.317Z,22.42
2023-05-05T13:31:44.467Z,22.33
2023-05-05T13:34:12.529Z,23.16
2023-05-05T13:36:40.387Z,23.43
2023-05-05T13:39:09.821Z,22.82
2023-05-05T13:41:37.620Z,23.05
2023-05-05T13:44:05.796Z,22.86
2023-05-05T13:46:33.862Z,22.78
2023-05-05T13:49:01.758Z,22.31
2023-05-05T13:51:30.446Z,22.82
2023-05-05T13:53:58.236Z,22.53
2023-05-05T13:56:27.727Z,22.53
2023-05-05T13:58:55.683Z,22.49
2023-05-05T14:01:23.634Z,22.31
2023-05-05T14:03:51.695Z,22.43
2023-05-05T14:06:19.561Z,22.33
2023-05-05T14:08:47.428Z,22.12
2023-05-05T14:11:17.077Z,22.31
2023-05-05T14:13:47.533Z,22.19
2023-05-05T14:16:15.756Z,22.31
2023-05-05T14:18:43.692Z,22.35
2023-05-05T14:21:12.132Z,22.17
2023-05-05T14:23:40.074Z,22.35
2023-05-05T14:26:08.857Z,22.70
2023-05-05T14:28:36.974Z,23.00
2023-05-05T14:31:06.384Z,22.51
2023-05-05T14:33:34.204Z,22.45
2023-05-05T14:36:02.061Z,22.37
2023-05-05T14:38:29.952Z,22.47
2023-05-05T14:40:57.870Z,22.65
2023-05-05T14:43:25.760Z,22.37
2023-05-05T14:45:53.694Z,22.15
2023-05-05T14:48:22.976Z,22.47
2023-05-05T14:50:50.889Z,22.48
2023-05-05T14:53:19.803Z,22.27
2023-05-05T14:55:47.675Z,21.92
2023-05-05T14:58:15.478Z,22.37
2023-05-05T15:00:43.374Z,21.42
2023-05-05T15:03:11.280Z,21.13
2023-05-05T15:05:40.781Z,21.13
2023-05-05T15:08:08.665Z,20.81
2023-05-05T15:10:36.553Z,20.65
2023-05-05T15:13:04.513Z,20.87
2023-05-05T15:15:32.417Z,21.04
2023-05-05T15:18:00.289Z,20.87
2023-05-05T15:20:28.294Z,21.10
2023-05-05T15:22:57.428Z,21.37
2023-05-05T15:25:25.633Z,21.45
2023-05-05T15:27:53.752Z,21.96
2023-05-05T15:30:21.644Z,21.95
2023-05-05T15:32:49.440Z,22.06
2023-05-05T15:35:17.449Z,21.85
2023-05-05T15:37:45.304Z,21.78
2023-05-05T15:40:14.697Z,21.80
2023-05-05T15:42:42.573Z,21.69
2023-05-05T15:45:12.320Z,21.61
2023-05-05T15:47:40.253Z,21.29
2023-05-05T15:50:09.009Z,21.61
2023-05-05T15:52:36.899Z,21.44
2023-05-05T15:55:05.210Z,21.45
2023-05-05T15:57:34.503Z,21.00
2023-05-05T16:00:02.501Z,20.76
2023-05-05T16:02:35.484Z,20.43
2023-05-05T16:05:03.519Z,20.29
2023-05-05T16:07:31.802Z,20.16
2023-05-05T16:09:59.665Z,20.01
2023-05-05T16:12:27.485Z,19.71
2023-05-05T16:14:56.623Z,19.84
2023-05-05T16:17:24.477Z,19.83
2023-05-05T16:19:52.327Z,19.65
2023-05-05T16:22:20.905Z,19.70
2023-05-05T16:24:48.708Z,19.67
2023-05-05T16:27:16.867Z,19.72
2023-05-05T16:29:44.634Z,19.62
2023-05-05T16:32:13.780Z,19.39
2023-05-05T16:34:41.725Z,19.50
2023-05-05T16:37:09.775Z,19.24
2023-05-05T16:39:40.115Z,19.36
2023-05-05T16:42:08.249Z,19.41
2023-05-05T16:44:36.167Z,19.32
2023-05-05T16:47:04.000Z,19.08
2023-05-05T16:49:33.311Z,19.02
2023-05-05T16:52:01.184Z,19.12
2023-05-05T16:54:29.041Z,19.15
2023-05-05T16:56:58.112Z,19.06
2023-05-05T16:59:26.049Z,19.03
2023-05-05T17:01:53.979Z,19.11
2023-05-05T17:04:21.825Z,19.08
2023-05-05T17:06:51.319Z,18.97
2023-05-05T17:09:19.183Z,18.82
2023-05-05T17:11:47.008Z,18.68
2023-05-05T17:14:14.858Z,18.69
2023-05-05T17:16:42.888Z,18.64
2023-05-05T17:19:10.800Z,18.57
2023-05-05T17:21:38.755Z,18.63
2023-05-05T17:24:09.023Z,18.56
2023-05-05T17:26:36.844Z,18.49
2023-05-05T17:29:04.747Z,18.49
2023-05-05T17:31:32.676Z,18.28
2023-05-05T17:34:00.602Z,18.30
2023-05-05T17:36:28.518Z,18.19
2023-05-05T17:38:56.353Z,18.15
2023-05-05T17:41:26.960Z,18.07
2023-05-05T17:44:02.834Z,17.97
2023-05-05T17:46:30.716Z,18.10
2023-05-05T17:48:58.638Z,18.00
2023-05-05T17:51:27.308Z,17.83
2023-05-05T17:53:55.166Z,17.81
2023-05-05T17:56:23.085Z,17.72
2023-05-05T17:58:52.427Z,17.56
2023-05-05T18:01:23.494Z,17.53
2023-05-05T18:03:51.434Z,17.47
2023-05-05T18:06:19.550Z,17.49
2023-05-05T18:08:47.579Z,17.48
2023-05-05T18:11:15.446Z,17.47
2023-05-05T18:13:43.708Z,17.32
2023-05-05T18:16:15.322Z,17.17
2023-05-05T18:18:43.374Z,17.12
2023-05-05T18:21:12.200Z,17.15
2023-05-05T18:23:40.436Z,16.90
2023-05-05T18:26:09.978Z,17.07
2023-05-05T18:28:38.201Z,16.91
2023-05-05T18:31:06.191Z,16.91
2023-05-05T18:33:35.608Z,16.92
2023-05-05T18:36:04.056Z,16.87
2023-05-05T18:38:32.192Z,16.76
2023-05-05T18:41:00.060Z,16.73
2023-05-05T18:43:28.023Z,16.70
2023-05-05T18:45:55.938Z,16.65
2023-05-05T18:48:23.766Z,16.55
2023-05-05T18:50:53.000Z,16.54
2023-05-05T18:53:21.416Z,16.37
2023-05-05T18:55:49.339Z,16.40
2023-05-05T18:58:17.581Z,16.33
2023-05-05T19:00:45.578Z,16.30
2023-05-05T19:03:13.499Z,16.20
2023-05-05T19:05:42.011Z,16.20
2023-05-05T19:08:11.297Z,16.24
2023-05-05T19:10:39.274Z,16.26
2023-05-05T19:13:07.791Z,16.19
2023-05-05T19:15:35.971Z,16.21
2023-05-05T19:18:05.522Z,16.14
2023-05-05T19:20:33.690Z,16.08
2023-05-05T19:23:03.802Z,15.93
2023-05-05T19:25:33.055Z,15.90
2023-05-05T19:28:01.004Z,15.81
2023-05-05T19:30:28.879Z,15.85
2023-05-05T19:32:56.727Z,15.87
2023-05-05T19:35:24.635Z,15.83
2023-05-05T19:37:52.551Z,15.83
2023-05-05T19:40:20.632Z,15.70
2023-05-05T19:42:49.885Z,15.64
2023-05-05T19:45:17.958Z,15.68
2023-05-05T19:47:46.155Z,15.35
2023-05-05T19:50:15.123Z,15.31
2023-05-05T19:52:42.952Z,15.25
2023-05-05T19:55:12.883Z,15.08
2023-05-05T19:57:41.069Z,15.07
2023-05-05T20:00:11.922Z,15.07
2023-05-05T20:02:39.905Z,14.99
2023-05-05T20:05:08.331Z,15.00
2023-05-05T20:07:36.164Z,15.03
2023-05-05T20:10:06.939Z,14.92
2023-05-05T20:12:35.048Z,15.01
2023-05-05T20:15:03.140Z,14.94
2023-05-05T20:17:32.350Z,14.86
2023-05-05T20:20:00.213Z,14.85
2023-05-05T20:22:28.141Z,14.92
2023-05-05T20:24:56.044Z,14.95
2023-05-05T20:27:24.537Z,14.86
2023-05-05T20:29:53.819Z,14.86
2023-05-05T20:32:21.648Z,14.71
2023-05-05T20:34:50.814Z,14.73
2023-05-05T20:37:18.852Z,14.63
2023-05-05T20:39:47.248Z,14.49
2023-05-05T20:42:15.139Z,14.60
2023-05-05T20:44:43.087Z,14.67
2023-05-05T20:47:11.388Z,14.56
2023-05-05T20:49:39.258Z,14.45
2023-05-05T20:52:08.658Z,14.41
2023-05-05T20:54:36.495Z,14.39
2023-05-05T20:57:04.390Z,14.46
2023-05-05T20:59:32.311Z,14.40
2023-05-05T21:02:00.226Z,14.49
2023-05-05T21:04:28.247Z,14.39
2023-05-05T21:06:57.238Z,14.34
2023-05-05T21:09:26.732Z,14.38
2023-05-05T21:11:54.704Z,14.25
2023-05-05T21:14:23.285Z,14.33
2023-05-05T21:16:51.247Z,14.23
2023-05-05T21:19:19.184Z,14.28
2023-05-05T21:21:47.002Z,14.26
2023-05-05T21:24:14.829Z,14.17
2023-05-05T21:26:44.681Z,14.21
2023-05-05T21:29:12.679Z,14.12
2023-05-05T21:31:40.581Z,14.08
2023-05-05T21:34:08.406Z,14.10
2023-05-05T21:36:36.781Z,14.01
2023-05-05T21:39:04.771Z,14.00
2023-05-05T21:41:32.725Z,13.94
2023-05-05T21:44:02.302Z,13.97
2023-05-05T21:46:30.228Z,13.93
2023-05-05T21:48:58.198Z,13.87
2023-05-05T21:51:27.200Z,13.83
2023-05-05T21:53:55.249Z,13.86
2023-05-05T21:56:23.109Z,13.81
2023-05-05T21:58:50.918Z,13.79
2023-05-05T22:01:20.276Z,13.57
2023-05-05T22:03:48.247Z,13.55
2023-05-05T22:06:17.336Z,13.54
2023-05-05T22:08:45.210Z,13.64
2023-05-05T22:11:13.099Z,13.64
2023-05-05T22:13:41.128Z,13.58
2023-05-05T22:16:10.049Z,13.46
2023-05-05T22:18:39.270Z,13.54
2023-05-05T22:21:07.359Z,13.39
2023-05-05T22:23:35.297Z,13.45
2023-05-05T22:26:03.159Z,13.31
2023-05-05T22:28:30.997Z,13.36
2023-05-05T22:30:58.947Z,13.27
2023-05-05T22:33:27.155Z,13.17
2023-05-05T22:35:56.342Z,13.20
2023-05-05T22:38:24.305Z,13.17
2023-05-05T22:40:52.183Z,13.14
2023-05-05T22:43:20.054Z,13.18
2023-05-05T22:45:48.014Z,13.10
2023-05-05T22:48:16.040Z,13.06
2023-05-05T22:50:43.935Z,12.93
2023-05-05T22:53:13.159Z,12.89
2023-05-05T22:55:41.201Z,12.93
2023-05-05T22:58:09.081Z,12.76
2023-05-05T23:00:36.979Z,12.68
2023-05-05T23:03:05.342Z,12.63
2023-05-05T23:05:34.347Z,12.54
2023-05-05T23:08:02.373Z,12.60
2023-05-05T23:10:31.587Z,12.48
2023-05-05T23:12:59.490Z,12.47
2023-05-05T23:15:27.514Z,12.43
2023-05-05T23:17:55.386Z,12.24
2023-05-05T23:20:23.435Z,12.11
2023-05-05T23:22:51.252Z,12.01
2023-05-05T23:25:19.776Z,11.93
2023-05-05T23:27:48.962Z,11.91
2023-05-05T23:30:16.978Z,11.86
2023-05-05T23:32:44.985Z,11.82
2023-05-05T23:35:13.048Z,11.83
2023-05-05T23:37:40.930Z,11.82
2023-05-05T23:40:09.928Z,11.72
2023-05-05T23:42:37.750Z,11.74
2023-05-05T23:45:08.206Z,11.64
2023-05-05T23:47:36.308Z,11.69
2023-05-05T23:50:04.717Z,11.56
2023-05-05T23:52:32.650Z,11.50
2023-05-05T23:55:00.447Z,11.41
2023-05-05T23:57:28.317Z,11.26
2023-05-05T23:59:56.150Z,11.10
